Time;durP1;ratioP1;P1;durP2;ratioP2;P2;SDS_P1;SDS_P2;PMS_P1;PMS_P2;Temp;Humidity;BMP_temperature;BMP_pressure;BME280_temperature;BME280_humidity;BME280_pressure;Samples;Min_cycle;Max_cycle;Signal;HPM_P1;HPM_P2
2022/04/22 00:01:15;;;;;;;7.57;6.80;;;9.00;99.90;;;;;;5033446;28;20555;-64
2022/04/22 00:03:41;;;;;;;8.00;7.07;;;9.00;99.90;;;;;;5035206;28;20420;-64
2022/04/22 00:06:07;;;;;;;6.43;5.83;;;8.90;99.90;;;;;;5035165;28;20174;-64
2022/04/22 00:08:33;;;;;;;10.90;6.43;;;9.00;99.90;;;;;;5034701;28;20444;-64
2022/04/22 00:13:44;;;;;;;6.53;5.87;;;9.00;99.90;;;;;;5035350;28;20654;-64
2022/04/22 00:16:10;;;;;;;8.00;7.17;;;9.00;99.90;;;;;;5034805;28;20471;-64
2022/04/22 00:18:36;;;;;;;7.50;6.60;;;9.00;99.90;;;;;;5034547;28;20448;-64
2022/04/22 00:21:01;;;;;;;7.13;6.53;;;9.00;99.90;;;;;;5035342;28;20526;-64
2022/04/22 00:23:27;;;;;;;7.47;6.67;;;8.90;99.90;;;;;;5034712;28;20421;-64
2022/04/22 00:25:54;;;;;;;8.63;7.10;;;8.90;99.90;;;;;;5034779;28;20174;-64
2022/04/22 00:28:20;;;;;;;6.93;6.33;;;8.90;99.90;;;;;;5034357;28;20229;-64
2022/04/22 00:30:46;;;;;;;12.33;7.20;;;8.90;99.90;;;;;;5034620;28;20425;-64
2022/04/22 00:33:11;;;;;;;10.30;7.00;;;8.90;99.90;;;;;;5034582;28;20582;-64
2022/04/22 00:35:37;;;;;;;12.00;7.87;;;8.80;99.90;;;;;;5034578;28;20451;-64
2022/04/22 00:38:02;;;;;;;7.20;6.50;;;8.80;99.90;;;;;;5034570;28;20201;-64
2022/04/22 00:40:28;;;;;;;7.33;6.60;;;8.70;99.90;;;;;;5034393;28;20174;-64
2022/04/22 00:42:53;;;;;;;7.10;6.50;;;8.80;99.90;;;;;;5034458;28;20197;-64
2022/04/22 00:45:20;;;;;;;8.00;7.30;;;8.70;99.90;;;;;;5034441;28;20543;-64
2022/04/22 00:47:47;;;;;;;8.43;7.20;;;8.70;99.90;;;;;;5034876;28;20195;-65
2022/04/22 00:50:12;;;;;;;7.73;6.97;;;8.60;99.90;;;;;;5035765;28;20462;-65
2022/04/22 00:52:38;;;;;;;9.60;8.00;;;8.60;99.90;;;;;;5035563;28;20513;-65
2022/04/22 00:55:04;;;;;;;8.80;7.83;;;8.60;99.90;;;;;;5035505;28;20217;-64
2022/04/22 00:57:32;;;;;;;8.13;7.40;;;8.60;99.90;;;;;;5035758;28;20214;-65
2022/04/22 00:59:58;;;;;;;24.70;8.10;;;8.60;99.90;;;;;;5034840;28;20965;-65
2022/04/22 01:02:23;;;;;;;9.60;7.17;;;8.60;99.90;;;;;;5035186;28;20520;-65
2022/04/22 01:10:18;;;;;;;8.20;7.50;;;8.50;99.90;;;;;;5034103;28;20567;-64
2022/04/22 01:12:44;;;;;;;8.43;7.40;;;8.40;99.90;;;;;;5033356;28;20421;-64
2022/04/22 01:15:09;;;;;;;8.57;7.77;;;8.40;99.90;;;;;;5033688;28;20460;-64
2022/04/22 01:17:35;;;;;;;9.03;8.23;;;8.40;99.90;;;;;;5033842;28;20186;-64
2022/04/22 01:20:01;;;;;;;7.80;7.10;;;8.30;99.90;;;;;;5033488;28;20189;-64
2022/04/22 01:22:27;;;;;;;8.57;7.87;;;8.30;99.90;;;;;;5033746;28;20421;-64
2022/04/22 01:24:59;;;;;;;8.63;7.77;;;8.30;99.90;;;;;;5036613;28;20192;-64
2022/04/22 01:27:27;;;;;;;16.33;8.60;;;8.20;99.90;;;;;;5034578;28;20471;-65
2022/04/22 01:29:53;;;;;;;9.37;8.47;;;8.20;99.90;;;;;;5032375;28;20835;-65
2022/04/22 01:32:18;;;;;;;10.13;8.67;;;8.30;99.90;;;;;;5034199;28;20421;-65
2022/04/22 01:34:44;;;;;;;9.67;8.60;;;8.20;99.90;;;;;;5032313;28;20457;-65
2022/04/22 01:37:09;;;;;;;12.50;8.77;;;8.20;99.90;;;;;;5031777;28;20248;-65
2022/04/22 01:39:35;;;;;;;9.93;8.93;;;8.20;99.90;;;;;;5030841;28;20261;-65
2022/04/22 01:42:01;;;;;;;11.03;9.30;;;8.20;99.90;;;;;;5031737;28;20258;-65
2022/04/22 01:44:26;;;;;;;9.80;8.80;;;8.10;99.90;;;;;;5031363;28;20512;-65
2022/04/22 01:46:52;;;;;;;13.50;8.90;;;8.10;99.90;;;;;;5031290;28;20190;-65
2022/04/22 01:49:18;;;;;;;10.53;9.40;;;8.10;99.90;;;;;;5029110;28;20651;-65
2022/04/22 01:51:44;;;;;;;10.47;9.43;;;8.10;99.90;;;;;;5031451;28;20249;-65
2022/04/22 01:54:10;;;;;;;9.87;8.87;;;8.10;99.90;;;;;;5030911;28;20167;-65
2022/04/22 01:56:35;;;;;;;12.57;9.13;;;8.00;99.90;;;;;;5031131;28;20213;-65
2022/04/22 01:59:01;;;;;;;9.70;8.70;;;7.90;99.90;;;;;;5048385;22;20477;-67
2022/04/22 02:01:27;;;;;;;9.87;8.97;;;7.90;99.90;;;;;;5023472;28;20632;-67
2022/04/22 02:03:52;;;;;;;10.70;9.70;;;8.00;99.90;;;;;;5025234;28;20253;-67
2022/04/22 02:06:18;;;;;;;9.90;8.90;;;8.00;99.90;;;;;;5025764;28;20190;-67
2022/04/22 02:08:44;;;;;;;9.93;8.93;;;8.00;99.90;;;;;;5019327;28;20202;-66
2022/04/22 02:11:09;;;;;;;10.40;9.40;;;7.90;99.90;;;;;;5017086;28;20175;-66
2022/04/22 02:13:36;;;;;;;9.67;8.77;;;7.90;99.90;;;;;;5020604;28;20813;-67
2022/04/22 02:16:03;;;;;;;10.43;9.43;;;7.90;99.90;;;;;;5022026;28;20199;-67
2022/04/22 02:18:29;;;;;;;11.33;9.07;;;7.80;99.90;;;;;;5012289;28;20526;-67
2022/04/22 02:20:56;;;;;;;11.80;10.40;;;7.80;99.90;;;;;;5021690;28;20421;-66
2022/04/22 02:23:22;;;;;;;10.70;9.60;;;7.70;99.90;;;;;;5019946;28;20171;-67
2022/04/22 02:25:47;;;;;;;12.57;9.50;;;7.80;99.90;;;;;;5022647;28;20436;-67
2022/04/22 02:28:31;;;;;;;9.90;8.97;;;7.70;99.90;;;;;;5016324;28;20276;-66
2022/04/22 02:31:01;;;;;;;10.67;9.67;;;7.60;99.90;;;;;;5015239;28;20171;-67
2022/04/22 02:33:27;;;;;;;10.90;9.90;;;7.70;99.90;;;;;;5011340;28;20418;-67
2022/04/22 02:35:53;;;;;;;10.53;9.47;;;7.60;99.90;;;;;;5011532;28;20457;-67
2022/04/22 02:38:18;;;;;;;9.73;8.83;;;7.60;99.90;;;;;;5008109;28;20195;-67
2022/04/22 02:46:12;;;;;;;10.97;9.87;;;7.50;99.90;;;;;;5011410;28;20417;-66
2022/04/22 02:48:37;;;;;;;10.53;9.53;;;7.40;99.90;;;;;;5008514;28;20449;-66
2022/04/22 02:51:03;;;;;;;14.03;11.30;;;7.30;99.90;;;;;;5011246;28;20175;-67
2022/04/22 02:53:28;;;;;;;11.50;10.23;;;7.30;99.90;;;;;;5010470;28;20540;-67
2022/04/22 02:55:54;;;;;;;11.30;10.10;;;7.30;99.90;;;;;;5011239;28;20695;-67
2022/04/22 02:58:20;;;;;;;13.60;10.60;;;7.30;99.90;;;;;;5008269;28;20214;-67
2022/04/22 03:00:45;;;;;;;12.27;10.53;;;7.30;99.90;;;;;;5011185;28;20640;-67
2022/04/22 03:03:11;;;;;;;12.30;11.07;;;7.30;99.90;;;;;;5010670;28;20179;-67
2022/04/22 03:05:37;;;;;;;10.90;9.90;;;7.30;99.90;;;;;;5011212;28;20552;-68
2022/04/22 03:08:03;;;;;;;12.47;11.17;;;7.30;99.90;;;;;;5010030;28;20195;-66
2022/04/22 03:10:29;;;;;;;13.10;11.03;;;7.20;99.90;;;;;;5009334;28;20174;-66
2022/04/22 03:12:55;;;;;;;11.23;10.03;;;7.20;99.90;;;;;;5010299;28;20644;-67
2022/04/22 03:15:21;;;;;;;12.33;11.10;;;7.20;99.90;;;;;;5010933;28;20499;-66
2022/04/22 03:17:48;;;;;;;12.33;11.03;;;7.10;99.90;;;;;;5010773;28;20199;-67
2022/04/22 03:20:14;;;;;;;14.43;12.53;;;7.10;99.90;;;;;;5008235;28;20738;-66
2022/04/22 03:22:40;;;;;;;12.40;11.10;;;7.10;99.90;;;;;;5010976;28;20433;-66
2022/04/22 03:25:06;;;;;;;13.53;11.10;;;7.10;99.90;;;;;;5010897;28;20437;-67
2022/04/22 03:27:32;;;;;;;14.63;12.47;;;7.00;99.90;;;;;;5010692;28;20746;-67
2022/04/22 03:29:57;;;;;;;12.97;11.67;;;7.00;99.90;;;;;;5007773;28;20429;-66
2022/04/22 03:32:23;;;;;;;14.20;12.00;;;7.00;99.90;;;;;;5010758;28;20214;-67
2022/04/22 03:34:48;;;;;;;14.50;10.97;;;6.90;99.90;;;;;;5010773;28;20598;-67
2022/04/22 03:37:14;;;;;;;14.30;11.90;;;6.90;99.90;;;;;;5014748;28;20984;-67
2022/04/22 03:39:39;;;;;;;13.50;12.10;;;6.80;99.90;;;;;;5011603;28;20174;-67
2022/04/22 03:42:06;;;;;;;13.83;12.43;;;6.80;99.90;;;;;;5014548;28;20179;-67
2022/04/22 03:44:31;;;;;;;16.70;12.90;;;6.80;99.90;;;;;;5014554;28;20194;-67
2022/04/22 03:46:57;;;;;;;14.47;12.97;;;6.80;99.90;;;;;;5014442;28;20421;-66
2022/04/22 03:49:22;;;;;;;15.03;11.50;;;6.70;99.90;;;;;;5011200;28;20179;-67
2022/04/22 03:51:48;;;;;;;15.47;13.33;;;6.70;99.90;;;;;;5014419;28;20179;-67
2022/04/22 03:54:15;;;;;;;16.13;13.47;;;6.70;99.90;;;;;;5014527;28;20186;-67
2022/04/22 03:59:24;;;;;;;18.73;14.80;;;6.70;99.90;;;;;;5011801;28;20429;-67
2022/04/22 04:01:50;;;;;;;15.63;13.70;;;6.60;99.90;;;;;;5014366;28;20771;-67
2022/04/22 04:04:15;;;;;;;16.07;13.83;;;6.70;99.90;;;;;;5014018;28;20202;-67
2022/04/22 04:06:41;;;;;;;17.40;14.00;;;6.50;99.90;;;;;;5013840;28;20190;-67
2022/04/22 04:17:09;;;;;;;19.20;14.50;;;6.40;99.90;;;;;;5014084;28;20425;-67
2022/04/22 04:25:05;;;;;;;16.73;14.37;;;6.40;99.90;;;;;;4993012;28;20922;-67
2022/04/22 04:27:30;;;;;;;17.33;14.40;;;6.40;99.90;;;;;;5013636;28;20449;-67
2022/04/22 04:29:56;;;;;;;14.73;13.13;;;6.40;99.90;;;;;;5011402;28;20862;-66
2022/04/22 04:32:21;;;;;;;15.67;13.97;;;6.40;99.90;;;;;;5013611;28;20170;-65
2022/04/22 04:34:47;;;;;;;18.47;14.97;;;6.40;99.90;;;;;;5013273;28;20440;-67
2022/04/22 04:37:13;;;;;;;18.20;16.10;;;6.40;99.90;;;;;;5013948;28;20183;-67
2022/04/22 04:39:40;;;;;;;20.93;16.00;;;6.40;99.90;;;;;;5010920;28;20620;-67
2022/04/22 04:42:07;;;;;;;18.83;15.97;;;6.40;99.90;;;;;;5013047;28;20738;-66
2022/04/22 04:44:33;;;;;;;19.60;16.97;;;6.40;99.90;;;;;;5013404;28;20469;-67
2022/04/22 04:46:58;;;;;;;17.67;15.00;;;6.40;99.90;;;;;;5012393;28;21089;-67
2022/04/22 04:49:27;;;;;;;18.90;14.77;;;6.40;99.90;;;;;;5010905;28;20457;-66
2022/04/22 04:51:53;;;;;;;18.53;16.17;;;6.50;99.90;;;;;;5012758;28;20225;-67
2022/04/22 04:54:19;;;;;;;21.97;16.97;;;6.60;99.90;;;;;;5013064;28;20911;-67
2022/04/22 04:56:44;;;;;;;20.20;16.27;;;6.60;99.90;;;;;;5013259;28;20822;-67
2022/04/22 04:59:10;;;;;;;20.73;16.67;;;6.70;99.90;;;;;;5010525;28;20689;-67
2022/04/22 05:01:35;;;;;;;17.40;14.53;;;6.80;99.90;;;;;;5012532;28;20218;-67
2022/04/22 05:04:01;;;;;;;21.93;16.00;;;6.90;99.90;;;;;;5013074;28;20179;-67
2022/04/22 05:06:26;;;;;;;17.90;15.07;;;6.90;99.90;;;;;;5013091;28;20209;-67
2022/04/22 05:08:52;;;;;;;17.10;15.30;;;7.00;99.90;;;;;;5010286;28;20217;-66
2022/04/22 05:11:17;;;;;;;21.73;16.20;;;7.10;99.90;;;;;;5012350;28;20171;-67
2022/04/22 05:13:43;;;;;;;17.97;15.43;;;7.20;99.90;;;;;;5013000;28;20189;-67
2022/04/22 05:16:08;;;;;;;21.93;17.57;;;7.40;99.90;;;;;;5012846;28;20203;-67
2022/04/22 05:18:34;;;;;;;20.47;16.50;;;7.50;99.90;;;;;;5010119;28;20236;-67
2022/04/22 05:20:59;;;;;;;21.40;15.33;;;7.60;99.90;;;;;;5012216;28;20171;-66
2022/04/22 05:23:25;;;;;;;21.00;14.50;;;7.70;99.90;;;;;;5012667;28;20281;-67
2022/04/22 05:25:50;;;;;;;18.83;14.40;;;7.80;99.90;;;;;;5012551;28;20175;-67
2022/04/22 05:28:16;;;;;;;23.00;16.40;;;7.90;99.90;;;;;;5010012;28;20202;-67
2022/04/22 05:33:25;;;;;;;19.50;16.53;;;8.10;99.90;;;;;;5012619;28;20189;-67
2022/04/22 05:35:51;;;;;;;18.67;16.70;;;8.10;99.90;;;;;;5012207;28;20461;-66
2022/04/22 05:38:17;;;;;;;19.93;17.70;;;8.20;99.90;;;;;;5007914;28;20560;-67
2022/04/22 05:40:46;;;;;;;24.23;19.37;;;8.30;99.90;;;;;;5012495;28;20178;-67
2022/04/22 05:43:11;;;;;;;19.10;16.97;;;8.50;99.90;;;;;;5012447;28;20443;-67
2022/04/22 05:45:37;;;;;;;18.90;16.90;;;8.60;99.90;;;;;;5011793;28;20426;-67
2022/04/22 05:48:03;;;;;;;20.90;18.60;;;8.70;99.90;;;;;;5011543;28;20705;-66
2022/04/22 05:50:29;;;;;;;22.93;17.97;;;8.80;99.90;;;;;;5010286;28;20187;-67
2022/04/22 05:52:55;;;;;;;18.10;16.00;;;8.90;99.90;;;;;;5012184;28;20690;-67
2022/04/22 05:55:22;;;;;;;23.93;18.10;;;8.90;99.90;;;;;;5011342;28;20986;-67
2022/04/22 05:57:50;;;;;;;20.43;17.70;;;8.90;99.90;;;;;;5011723;28;20469;-67
2022/04/22 06:00:18;;;;;;;20.13;17.97;;;9.10;99.90;;;;;;5009269;28;20934;-67
2022/04/22 06:02:44;;;;;;;21.30;17.63;;;9.30;99.90;;;;;;5012054;28;20456;-67
2022/04/22 06:05:11;;;;;;;21.37;16.90;;;9.50;99.90;;;;;;5011236;28;20441;-67
2022/04/22 06:07:38;;;;;;;19.87;17.80;;;9.60;99.90;;;;;;5011779;28;20950;-67
2022/04/22 06:12:49;;;;;;;20.33;17.77;;;9.90;99.90;;;;;;5003887;28;20452;-67
2022/04/22 06:15:14;;;;;;;23.70;18.13;;;10.00;99.90;;;;;;5011623;28;20908;-67
2022/04/22 06:17:40;;;;;;;18.67;16.73;;;10.20;99.90;;;;;;5011898;28;20197;-67
2022/04/22 06:20:06;;;;;;;20.93;18.10;;;10.40;99.90;;;;;;5008646;28;20213;-67
2022/04/22 06:22:32;;;;;;;24.60;20.10;;;10.60;99.90;;;;;;5011487;28;20210;-67
2022/04/22 06:24:57;;;;;;;26.60;20.50;;;10.70;99.90;;;;;;5011572;28;20460;-67
2022/04/22 06:27:28;;;;;;;21.23;19.10;;;10.90;99.90;;;;;;5011535;28;20643;-67
2022/04/22 06:29:55;;;;;;;24.80;21.13;;;11.00;99.90;;;;;;5008217;28;20205;-67
2022/04/22 06:32:27;;;;;;;21.13;18.80;;;11.10;99.90;;;;;;5011491;28;20425;-67
2022/04/22 06:34:52;;;;;;;24.70;20.43;;;11.20;99.90;;;;;;5010093;28;20986;-67
2022/04/22 06:37:19;;;;;;;22.93;20.57;;;11.30;99.90;;;;;;5010712;28;20477;-66
2022/04/22 06:47:59;;;;;;;22.27;19.93;;;11.90;99.90;;;;;;5012721;28;20974;-67
2022/04/22 06:50:24;;;;;;;23.93;21.00;;;12.20;99.90;;;;;;5012205;28;20425;-67
2022/04/22 06:52:50;;;;;;;24.83;22.23;;;12.10;99.90;;;;;;5012300;28;20270;-67
2022/04/22 06:55:19;;;;;;;24.30;21.77;;;12.00;99.90;;;;;;5012242;28;20206;-67
2022/04/22 06:57:50;;;;;;;22.57;20.27;;;12.10;99.90;;;;;;5012050;28;20210;-67
2022/04/22 07:00:17;;;;;;;24.10;21.23;;;12.30;99.90;;;;;;5012071;28;20418;-67
2022/04/22 07:02:43;;;;;;;26.53;21.57;;;12.40;99.90;;;;;;5012224;28;20500;-67
2022/04/22 07:05:11;;;;;;;23.60;21.20;;;12.50;99.90;;;;;;5012226;28;20521;-67
2022/04/22 07:07:36;;;;;;;23.23;20.83;;;12.60;99.90;;;;;;5011964;28;20617;-65
2022/04/22 07:10:03;;;;;;;23.93;21.40;;;12.70;99.90;;;;;;5011312;28;20883;-68
2022/04/22 07:12:31;;;;;;;26.17;23.33;;;12.80;99.90;;;;;;5012077;28;20179;-67
2022/04/22 07:15:07;;;;;;;23.47;21.07;;;12.90;99.90;;;;;;5012123;28;20461;-67
2022/04/22 07:17:34;;;;;;;22.97;20.47;;;12.90;99.90;;;;;;5012059;28;20802;-67
2022/04/22 07:20:01;;;;;;;21.83;19.63;;;13.20;99.90;;;;;;5011705;28;20442;-67
2022/04/22 07:22:27;;;;;;;22.73;20.33;;;13.20;99.90;;;;;;5012124;28;20425;-67
2022/04/22 07:24:53;;;;;;;25.57;23.00;;;13.20;99.90;;;;;;5012132;28;20969;-67
2022/04/22 07:27:27;;;;;;;25.33;22.63;;;13.30;99.90;;;;;;5011951;28;20528;-65
2022/04/22 07:29:54;;;;;;;24.53;21.83;;;13.20;99.90;;;;;;5011760;28;20424;-65
2022/04/22 07:32:20;;;;;;;25.50;22.90;;;13.40;99.90;;;;;;5012027;28;20448;-67
2022/04/22 07:34:45;;;;;;;26.50;21.73;;;13.50;99.90;;;;;;5011791;28;20454;-67
2022/04/22 07:37:11;;;;;;;25.00;22.50;;;13.60;99.90;;;;;;5012000;28;20241;-67
2022/04/22 07:39:40;;;;;;;23.53;21.10;;;13.80;99.90;;;;;;5011652;28;20174;-67
2022/04/22 07:42:14;;;;;;;25.30;21.67;;;14.00;99.90;;;;;;5010610;28;20517;-67
2022/04/22 07:47:26;;;;;;;24.83;22.17;;;14.30;99.90;;;;;;5012071;28;20444;-67
2022/04/22 07:49:51;;;;;;;31.00;26.30;;;14.60;99.90;;;;;;5011523;28;20899;-67
2022/04/22 07:52:17;;;;;;;25.43;22.63;;;14.30;99.90;;;;;;5011828;28;20171;-67
2022/04/22 07:54:42;;;;;;;23.50;21.07;;;14.40;99.90;;;;;;5011790;28;20178;-68
2022/04/22 07:57:10;;;;;;;22.57;20.37;;;14.50;99.90;;;;;;5011487;28;20179;-67
2022/04/22 07:59:35;;;;;;;23.93;21.63;;;14.60;99.90;;;;;;5035145;22;20712;-66
2022/04/22 08:02:02;;;;;;;26.57;23.07;;;14.70;99.90;;;;;;5011600;28;20508;-66
2022/04/22 08:04:28;;;;;;;23.30;20.80;;;14.70;99.90;;;;;;5011638;28;20171;-66
2022/04/22 08:06:53;;;;;;;23.90;21.50;;;14.60;99.90;;;;;;5011643;28;20467;-67
2022/04/22 08:09:19;;;;;;;23.63;21.17;;;14.40;99.90;;;;;;5011336;28;20277;-67
2022/04/22 08:11:44;;;;;;;22.70;20.30;;;14.60;99.90;;;;;;5011605;28;20182;-69
2022/04/22 08:14:13;;;;;;;25.83;23.07;;;14.90;99.90;;;;;;5011462;28;20540;-68
2022/04/22 08:16:39;;;;;;;24.50;22.00;;;14.80;99.90;;;;;;5011498;28;20207;-68
2022/04/22 08:19:05;;;;;;;25.50;22.73;;;15.00;99.90;;;;;;5011098;28;20961;-67
2022/04/22 08:21:33;;;;;;;24.07;21.77;;;15.20;99.90;;;;;;5012407;28;20425;-68
2022/04/22 08:24:02;;;;;;;24.17;21.87;;;15.50;99.90;;;;;;5015070;28;20159;-69
2022/04/22 08:26:32;;;;;;;26.43;22.60;;;15.70;99.90;;;;;;5015119;28;20426;-68
2022/04/22 08:28:58;;;;;;;24.53;22.13;;;15.80;99.90;;;;;;5014529;28;20445;-68
2022/04/22 08:31:23;;;;;;;22.43;20.27;;;15.80;99.90;;;;;;5015059;28;20421;-67
2022/04/22 08:33:50;;;;;;;22.07;19.87;;;15.60;99.90;;;;;;5014935;28;20425;-67
2022/04/22 08:36:16;;;;;;;23.47;21.20;;;15.80;99.90;;;;;;5014504;28;20203;-67
2022/04/22 08:38:41;;;;;;;23.13;20.93;;;16.10;99.90;;;;;;5012584;28;20541;-67
2022/04/22 08:41:09;;;;;;;22.77;20.53;;;16.20;99.30;;;;;;5018292;28;20213;-67
2022/04/22 08:43:36;;;;;;;28.07;21.10;;;16.30;99.40;;;;;;5008815;28;20269;-67
2022/04/22 08:46:02;;;;;;;21.17;19.07;;;16.50;99.00;;;;;;5000022;28;20838;-67
2022/04/22 08:51:15;;;;;;;23.23;20.60;;;17.30;97.80;;;;;;5012387;28;20181;-67
2022/04/22 08:53:43;;;;;;;21.00;19.17;;;17.50;97.00;;;;;;5025059;28;20425;-67
2022/04/22 08:56:10;;;;;;;22.90;20.80;;;17.60;96.80;;;;;;5033964;28;20555;-67
2022/04/22 08:58:36;;;;;;;22.30;20.20;;;17.70;96.10;;;;;;5033807;28;20540;-67
2022/04/22 09:01:02;;;;;;;22.57;20.60;;;17.90;95.40;;;;;;5034060;28;20998;-67
2022/04/22 09:03:29;;;;;;;19.73;17.87;;;18.20;94.00;;;;;;5029046;28;20186;-67
2022/04/22 09:05:56;;;;;;;23.33;21.13;;;18.30;93.70;;;;;;5034036;28;20452;-68
2022/04/22 09:08:24;;;;;;;21.50;19.30;;;18.40;93.40;;;;;;5033605;28;20487;-67
2022/04/22 09:10:56;;;;;;;23.53;21.10;;;18.20;93.40;;;;;;5033958;28;20918;-67
2022/04/22 09:13:32;;;;;;;21.80;19.60;;;18.40;92.90;;;;;;5030067;28;20877;-67
2022/04/22 09:15:58;;;;;;;20.37;18.50;;;18.60;92.60;;;;;;5033961;28;20463;-67
2022/04/22 09:18:29;;;;;;;18.90;17.00;;;18.90;91.70;;;;;;5033286;28;20436;-67
2022/04/22 09:21:02;;;;;;;22.87;19.10;;;19.60;90.20;;;;;;5033823;28;20408;-70
2022/04/22 09:23:32;;;;;;;21.23;19.40;;;20.30;87.80;;;;;;5028558;28;20467;-69
2022/04/22 09:25:58;;;;;;;19.47;17.87;;;20.40;87.00;;;;;;5033757;28;20417;-69
2022/04/22 09:28:23;;;;;;;20.30;18.50;;;20.70;83.40;;;;;;5033200;28;20571;-69
2022/04/22 09:31:04;;;;;;;21.30;19.30;;;21.20;81.10;;;;;;5033608;28;20977;-68
2022/04/22 09:33:35;;;;;;;19.90;18.20;;;21.00;81.60;;;;;;5020841;28;20178;-69
2022/04/22 09:44:23;;;;;;;19.90;18.20;;;21.30;75.60;;;;;;5025116;28;20479;-69
2022/04/22 09:46:49;;;;;;;19.83;18.13;;;21.70;74.90;;;;;;5033291;28;20922;-70
2022/04/22 09:49:38;;;;;;;20.43;18.70;;;22.20;73.40;;;;;;5032919;28;20452;-68
2022/04/22 09:52:05;;;;;;;20.83;19.03;;;22.40;72.10;;;;;;5032288;28;20247;-69
2022/04/22 09:54:31;;;;;;;20.37;18.50;;;22.60;70.30;;;;;;5013336;28;20518;-68
2022/04/22 09:56:58;;;;;;;20.17;18.53;;;22.40;70.00;;;;;;5013396;28;20504;-68
2022/04/22 09:59:28;;;;;;;19.60;17.90;;;21.80;70.70;;;;;;5012844;28;20199;-67
2022/04/22 10:01:54;;;;;;;20.50;18.70;;;21.60;71.10;;;;;;5013375;28;20504;-69
2022/04/22 10:04:21;;;;;;;20.30;18.70;;;22.50;69.70;;;;;;5022735;28;20433;-68
2022/04/22 10:06:48;;;;;;;20.30;18.60;;;23.50;67.60;;;;;;5032928;28;20478;-69
2022/04/22 10:09:14;;;;;;;18.50;17.03;;;24.00;64.60;;;;;;5032437;28;20441;-70
2022/04/22 10:11:47;;;;;;;20.90;19.00;;;24.80;63.40;;;;;;5032935;28;20417;-69
2022/04/22 10:14:13;;;;;;;21.23;19.60;;;25.20;60.90;;;;;;5028118;28;20435;-69
2022/04/22 10:16:38;;;;;;;20.37;18.40;;;25.00;59.60;;;;;;5013884;28;20475;-70
2022/04/22 10:19:05;;;;;;;22.20;20.37;;;24.80;58.80;;;;;;5012195;28;20726;-69
2022/04/22 10:21:31;;;;;;;19.03;17.47;;;24.90;58.30;;;;;;5012754;28;20198;-70
2022/04/22 10:23:58;;;;;;;21.10;19.10;;;25.10;58.20;;;;;;5019417;28;20879;-69
2022/04/22 10:26:26;;;;;;;19.07;17.57;;;24.10;59.50;;;;;;5032850;28;20918;-67
2022/04/22 10:28:53;;;;;;;20.30;18.60;;;23.10;60.10;;;;;;5032193;28;20445;-69
2022/04/22 10:31:19;;;;;;;19.10;17.40;;;22.70;61.40;;;;;;5032452;28;20421;-70
2022/04/22 10:33:45;;;;;;;19.40;17.90;;;24.00;60.90;;;;;;5018530;28;20465;-68
2022/04/22 10:36:16;;;;;;;18.07;16.67;;;24.90;57.70;;;;;;5012741;28;20615;-69
2022/04/22 10:38:45;;;;;;;20.07;18.37;;;25.90;57.10;;;;;;5012374;28;20445;-70
2022/04/22 10:41:19;;;;;;;17.40;16.20;;;26.80;54.70;;;;;;5012460;28;20422;-69
2022/04/22 10:49:45;;;;;;;20.07;18.50;;;27.00;50.70;;;;;;5012394;28;20449;-70
2022/04/22 10:52:14;;;;;;;18.20;16.63;;;27.60;51.00;;;;;;5012427;28;20505;-70
2022/04/22 10:54:51;;;;;;;18.87;17.23;;;28.50;49.10;;;;;;5023863;28;20925;-70
2022/04/22 10:57:18;;;;;;;16.67;15.47;;;28.70;48.20;;;;;;5031957;28;20416;-70
2022/04/22 10:59:45;;;;;;;17.33;15.93;;;28.60;48.00;;;;;;5031711;28;20640;-70
2022/04/22 11:02:28;;;;;;;16.00;14.80;;;28.70;47.40;;;;;;5031879;28;20471;-70
2022/04/22 11:05:18;;;;;;;18.53;17.13;;;29.30;46.40;;;;;;5027992;28;20429;-70
2022/04/22 11:07:58;;;;;;;18.20;16.83;;;29.10;45.80;;;;;;5031797;28;20507;-69
2022/04/22 11:10:49;;;;;;;16.40;15.10;;;28.50;46.10;;;;;;5031806;28;20421;-70
2022/04/22 11:13:53;;;;;;;19.17;17.57;;;28.50;46.50;;;;;;5025272;28;20478;-70
2022/04/22 11:16:22;;;;;;;18.00;16.60;;;28.80;45.60;;;;;;5010060;28;20501;-70
2022/04/22 11:19:18;;;;;;;17.57;16.17;;;28.80;45.40;;;;;;5011950;28;20770;-70
2022/04/22 11:21:57;;;;;;;17.70;16.20;;;29.70;44.60;;;;;;5012252;28;20907;-70
2022/04/22 11:24:23;;;;;;;19.57;17.90;;;29.30;44.90;;;;;;5008484;28;20868;-70
2022/04/22 11:26:49;;;;;;;17.77;16.33;;;28.30;45.10;;;;;;5012223;28;20488;-70
2022/04/22 11:29:16;;;;;;;19.03;17.47;;;27.60;46.30;;;;;;5011671;28;20229;-69
2022/04/22 11:31:58;;;;;;;20.00;18.30;;;27.20;46.60;;;;;;5012048;28;20410;-70
2022/04/22 11:35:12;;;;;;;17.00;15.70;;;27.20;46.80;;;;;;5009092;28;20423;-69
2022/04/22 11:37:38;;;;;;;17.23;15.93;;;29.40;45.60;;;;;;5002669;28;20854;-70
2022/04/22 11:40:08;;;;;;;15.93;14.83;;;30.40;43.70;;;;;;5011573;28;20484;-70
2022/04/22 11:42:43;;;;;;;16.43;15.23;;;31.70;42.90;;;;;;5010773;28;20175;-68
2022/04/22 11:45:15;;;;;;;20.07;18.30;;;32.50;41.30;;;;;;5011055;28;20424;-69
2022/04/22 11:47:41;;;;;;;17.10;15.53;;;32.20;40.30;;;;;;5011918;28;20448;-69
2022/04/22 11:50:09;;;;;;;15.90;14.57;;;32.20;40.70;;;;;;5011606;28;20829;-70
2022/04/22 11:52:34;;;;;;;17.57;16.27;;;33.40;39.20;;;;;;5010937;28;20500;-69
2022/04/22 11:55:05;;;;;;;16.57;15.47;;;34.40;37.90;;;;;;5028916;28;21068;-70
2022/04/22 11:57:37;;;;;;;16.97;15.87;;;34.90;36.60;;;;;;5033864;28;20670;-70
2022/04/22 12:05:47;;;;;;;17.73;16.53;;;33.70;36.50;;;;;;5015225;28;20561;-69
2022/04/22 12:08:15;;;;;;;16.40;15.10;;;33.80;36.00;;;;;;5015148;28;20816;-69
2022/04/22 12:10:46;;;;;;;15.73;14.63;;;34.30;35.60;;;;;;5015249;28;20429;-70
2022/04/22 12:13:16;;;;;;;17.40;16.30;;;34.00;35.50;;;;;;5017870;28;20432;-70
2022/04/22 12:15:48;;;;;;;16.73;15.53;;;31.60;36.60;;;;;;5015293;28;20453;-70
2022/04/22 12:18:28;;;;;;;18.50;17.10;;;30.90;38.40;;;;;;5014843;28;20438;-70
2022/04/22 12:20:54;;;;;;;16.20;15.10;;;32.50;37.00;;;;;;5015239;28;20413;-69
2022/04/22 12:23:21;;;;;;;15.40;14.30;;;33.10;36.20;;;;;;5017748;28;20412;-69
2022/04/22 12:25:55;;;;;;;16.20;14.80;;;34.00;35.30;;;;;;5034683;28;20417;-70
2022/04/22 12:28:22;;;;;;;15.73;14.43;;;34.50;34.60;;;;;;5034404;28;20960;-70
2022/04/22 12:30:47;;;;;;;16.30;15.20;;;34.70;35.00;;;;;;5034666;28;20523;-69
2022/04/22 12:33:21;;;;;;;15.60;14.27;;;33.20;34.80;;;;;;5025411;28;20520;-69
2022/04/22 12:35:49;;;;;;;17.73;13.93;;;32.20;35.50;;;;;;5014589;28;20333;-69
2022/04/22 12:38:16;;;;;;;15.00;13.90;;;32.10;36.00;;;;;;5014412;28;20943;-69
2022/04/22 12:40:49;;;;;;;14.77;13.67;;;32.10;36.30;;;;;;5014844;28;20414;-69
2022/04/22 12:43:29;;;;;;;14.80;13.80;;;33.00;36.10;;;;;;5012169;28;20418;-69
2022/04/22 12:54:19;;;;;;;14.90;13.80;;;29.40;38.50;;;;;;5019869;28;20428;-69
2022/04/22 12:56:54;;;;;;;16.70;15.50;;;30.90;37.70;;;;;;5034284;28;20452;-69
2022/04/22 12:59:20;;;;;;;15.43;14.33;;;32.50;36.00;;;;;;5033590;28;20201;-69
2022/04/22 13:01:48;;;;;;;17.20;15.90;;;33.30;35.20;;;;;;5034165;28;20952;-69
2022/04/22 13:04:22;;;;;;;16.23;15.00;;;33.50;34.40;;;;;;5017955;28;20517;-70
2022/04/22 13:06:48;;;;;;;14.70;13.60;;;35.20;33.50;;;;;;5014356;28;20418;-70
2022/04/22 13:09:16;;;;;;;14.97;13.97;;;34.20;33.40;;;;;;5012847;28;21022;-70
2022/04/22 13:11:43;;;;;;;16.37;15.27;;;32.70;35.00;;;;;;5014268;28;20194;-69
2022/04/22 13:14:09;;;;;;;15.47;14.23;;;32.70;34.70;;;;;;5016468;28;20837;-68
2022/04/22 13:16:35;;;;;;;15.80;14.60;;;31.70;35.80;;;;;;5033905;28;20456;-69
2022/04/22 13:19:01;;;;;;;15.47;14.27;;;31.40;35.80;;;;;;5033487;28;20992;-69
2022/04/22 13:21:27;;;;;;;15.27;14.00;;;29.20;37.40;;;;;;5033641;28;20653;-69
2022/04/22 13:23:53;;;;;;;13.47;12.47;;;28.40;39.00;;;;;;5019523;28;20522;-70
2022/04/22 13:26:19;;;;;;;13.20;12.20;;;30.10;37.70;;;;;;5014040;28;20767;-69
2022/04/22 13:28:45;;;;;;;14.83;13.60;;;31.40;36.50;;;;;;5013459;28;20194;-69
2022/04/22 13:31:11;;;;;;;14.80;13.50;;;32.70;35.00;;;;;;5013798;28;20426;-70
2022/04/22 13:33:37;;;;;;;14.50;13.40;;;32.70;34.40;;;;;;5019062;28;20170;-69
2022/04/22 13:36:04;;;;;;;13.93;12.83;;;32.40;34.90;;;;;;5033521;28;20820;-69
2022/04/22 13:38:31;;;;;;;14.70;13.67;;;32.10;34.90;;;;;;5033158;28;20182;-69
2022/04/22 13:40:57;;;;;;;15.10;13.90;;;29.90;36.20;;;;;;5033336;28;20421;-69
2022/04/22 13:43:22;;;;;;;14.37;13.07;;;28.30;38.10;;;;;;5028162;28;20420;-69
2022/04/22 13:54:01;;;;;;;14.77;13.47;;;24.60;42.70;;;;;;5011331;28;20468;-69
2022/04/22 13:56:27;;;;;;;15.03;13.73;;;24.60;43.00;;;;;;5013416;28;20986;-70
2022/04/22 13:58:52;;;;;;;14.00;13.00;;;24.90;42.90;;;;;;5012884;28;20203;-69
2022/04/22 14:01:18;;;;;;;13.30;12.30;;;24.70;42.60;;;;;;5013256;28;20256;-69
2022/04/22 14:03:43;;;;;;;12.20;11.13;;;24.70;42.60;;;;;;5010976;28;20175;-69